Time;durP1;ratioP1;P1;durP2;ratioP2;P2;SDS_P1;SDS_P2;PMS_P1;PMS_P2;Temp;Humidity;BMP_temperature;BMP_pressure;BME280_temperature;BME280_humidity;BME280_pressure;Samples;Min_cycle;Max_cycle;Signal;HPM_P1;HPM_P2
2022/11/14 00:00:34;;;;;;;48.33;25.33;;;6.10;99.90;;;;;;4947951;29;20082;-84
2022/11/14 00:03:03;;;;;;;49.35;26.85;;;6.10;99.90;;;;;;4941289;29;20047;-84
2022/11/14 00:05:29;;;;;;;47.55;25.70;;;6.80;99.90;;;;;;4930278;29;20044;-84
2022/11/14 00:07:55;;;;;;;47.53;26.27;;;6.20;99.90;;;;;;4936351;29;20054;-84
2022/11/14 00:10:20;;;;;;;52.83;25.92;;;6.70;99.90;;;;;;4905910;29;20400;-84
2022/11/14 00:12:46;;;;;;;50.65;27.00;;;6.40;99.90;;;;;;4937765;29;20397;-84
2022/11/14 00:15:13;;;;;;;52.05;27.08;;;6.10;99.90;;;;;;4910272;29;20484;-84
2022/11/14 00:17:39;;;;;;;47.22;24.02;;;6.20;99.90;;;;;;4941743;28;20077;-84
2022/11/14 00:20:06;;;;;;;48.38;26.45;;;6.20;99.90;;;;;;4958404;28;20031;-84
2022/11/14 00:22:32;;;;;;;50.35;25.10;;;6.20;99.90;;;;;;4948533;28;20050;-84
2022/11/14 00:24:58;;;;;;;45.03;23.42;;;7.10;99.90;;;;;;4938283;29;20125;-84
2022/11/14 00:27:24;;;;;;;50.53;26.67;;;6.30;99.90;;;;;;4924220;29;20039;-85
2022/11/14 00:29:49;;;;;;;48.85;24.13;;;6.30;99.90;;;;;;4940028;29;20042;-85
2022/11/14 00:32:15;;;;;;;52.63;24.60;;;7.60;99.90;;;;;;4924110;29;20043;-84
2022/11/14 00:34:41;;;;;;;48.00;25.20;;;6.60;99.90;;;;;;4908438;29;20035;-84
2022/11/14 00:37:06;;;;;;;48.17;25.20;;;6.30;99.90;;;;;;4924150;29;20041;-84
2022/11/14 00:39:32;;;;;;;51.30;26.58;;;6.40;99.90;;;;;;4939691;29;20047;-84
2022/11/14 00:41:58;;;;;;;46.80;23.40;;;6.50;99.90;;;;;;4939706;29;20039;-84
2022/11/14 00:44:23;;;;;;;52.10;26.65;;;6.40;99.90;;;;;;4923953;29;20049;-84
2022/11/14 00:46:49;;;;;;;54.95;26.35;;;6.40;99.90;;;;;;4923590;29;20078;-84
2022/11/14 00:49:15;;;;;;;53.88;26.48;;;6.40;99.90;;;;;;4908446;29;20046;-84
2022/11/14 00:51:40;;;;;;;49.60;25.27;;;7.10;99.90;;;;;;4923734;29;20074;-84
2022/11/14 00:54:06;;;;;;;53.03;28.30;;;6.70;99.90;;;;;;4920204;29;20535;-84
2022/11/14 00:56:32;;;;;;;53.53;26.92;;;6.60;99.90;;;;;;4923359;29;20428;-84
2022/11/14 00:58:57;;;;;;;46.47;23.38;;;6.40;99.90;;;;;;4907098;29;20110;-84
2022/11/14 01:01:23;;;;;;;48.70;25.00;;;6.80;99.90;;;;;;4935149;29;20083;-83
2022/11/14 01:03:50;;;;;;;54.38;29.50;;;6.50;99.90;;;;;;4928423;29;20043;-84
2022/11/14 01:06:17;;;;;;;55.70;27.52;;;7.70;99.90;;;;;;4938927;28;20050;-84
2022/11/14 01:08:43;;;;;;;51.20;27.73;;;6.40;99.90;;;;;;4922008;29;20126;-84
2022/11/14 01:11:12;;;;;;;61.08;31.38;;;7.60;99.90;;;;;;4935664;29;20054;-84
2022/11/14 01:13:38;;;;;;;55.15;29.65;;;6.50;99.90;;;;;;4920180;29;20563;-84
2022/11/14 01:16:04;;;;;;;47.50;24.50;;;6.40;99.90;;;;;;4936478;28;20403;-84
2022/11/14 01:18:30;;;;;;;57.13;28.95;;;6.50;99.90;;;;;;4919732;29;20087;-84
2022/11/14 01:20:56;;;;;;;62.38;33.13;;;6.90;99.90;;;;;;4921228;29;20035;-84
2022/11/14 01:23:22;;;;;;;58.17;29.08;;;6.50;99.90;;;;;;4939037;29;20074;-84
2022/11/14 01:25:48;;;;;;;63.00;31.75;;;6.50;99.90;;;;;;4920200;29;20156;-84
2022/11/14 01:28:18;;;;;;;61.13;32.58;;;6.50;99.90;;;;;;4928762;29;20408;-84
2022/11/14 01:30:44;;;;;;;64.57;33.30;;;6.60;99.90;;;;;;4922654;29;20039;-84
2022/11/14 01:33:10;;;;;;;60.75;33.15;;;5.40;99.90;;;;;;4933256;29;20047;-84
2022/11/14 01:35:37;;;;;;;59.40;32.50;;;7.30;99.90;;;;;;4922218;29;20074;-84
2022/11/14 01:38:04;;;;;;;52.38;27.15;;;6.40;99.90;;;;;;4921703;29;20457;-84
2022/11/14 01:40:31;;;;;;;64.28;33.80;;;6.40;99.90;;;;;;4928418;29;20123;-84
2022/11/14 01:43:15;;;;;;;64.60;32.72;;;6.40;99.90;;;;;;4919908;29;20107;-85
2022/11/14 01:45:50;;;;;;;58.75;31.27;;;6.70;99.90;;;;;;4934071;29;20114;-84
2022/11/14 01:48:48;;;;;;;61.78;33.78;;;6.30;99.90;;;;;;4954876;29;20079;-84
2022/11/14 01:51:28;;;;;;;63.75;33.72;;;6.40;99.90;;;;;;4928070;29;20043;-84
2022/11/14 01:53:57;;;;;;;64.60;34.10;;;6.30;99.90;;;;;;4938887;29;20488;-84
2022/11/14 01:56:31;;;;;;;63.35;34.17;;;6.80;99.90;;;;;;4954011;29;20512;-84
2022/11/14 01:59:07;;;;;;;63.08;33.40;;;6.80;99.90;;;;;;4948772;28;20061;-84
2022/11/14 02:01:37;;;;;;;68.05;34.65;;;7.80;99.90;;;;;;4935359;28;20055;-84
2022/11/14 02:04:05;;;;;;;60.28;32.25;;;6.90;99.90;;;;;;4944304;29;20043;-84
2022/11/14 02:06:33;;;;;;;63.60;35.22;;;6.20;99.90;;;;;;4937871;29;20043;-84
2022/11/14 02:09:06;;;;;;;63.00;33.85;;;6.10;99.90;;;;;;4921896;29;20045;-83
2022/11/14 02:11:36;;;;;;;65.10;33.55;;;6.50;99.90;;;;;;4938294;29;20051;-84
2022/11/14 02:14:02;;;;;;;65.65;33.42;;;6.10;99.90;;;;;;4932788;29;20082;-84
2022/11/14 02:16:28;;;;;;;63.22;33.40;;;6.10;99.90;;;;;;4895833;28;21582;-84
2022/11/14 02:18:53;;;;;;;62.92;33.67;;;6.00;99.90;;;;;;4934455;29;20036;-84
2022/11/14 02:21:19;;;;;;;60.47;33.85;;;6.00;99.90;;;;;;4920477;28;20098;-84
2022/11/14 02:23:45;;;;;;;61.03;32.88;;;6.00;99.90;;;;;;4922274;28;20047;-84
2022/11/14 02:26:11;;;;;;;56.83;30.27;;;6.00;99.90;;;;;;4921854;28;20043;-84
2022/11/14 02:28:37;;;;;;;62.03;34.28;;;6.00;99.90;;;;;;4910117;29;20122;-85
2022/11/14 02:31:02;;;;;;;65.82;34.35;;;5.90;99.90;;;;;;4935648;29;20043;-84
2022/11/14 02:33:28;;;;;;;70.63;35.63;;;5.90;99.90;;;;;;4918999;29;20366;-84
2022/11/14 02:35:54;;;;;;;61.97;32.45;;;6.00;99.90;;;;;;4906418;29;20050;-83
2022/11/14 02:38:19;;;;;;;60.38;34.15;;;5.90;99.90;;;;;;4919480;29;20389;-84
2022/11/14 02:40:45;;;;;;;62.53;33.97;;;5.90;99.90;;;;;;4919056;29;20105;-84
2022/11/14 02:43:11;;;;;;;66.72;35.83;;;6.10;99.90;;;;;;4918989;29;20043;-84
2022/11/14 02:45:36;;;;;;;63.28;33.13;;;5.90;99.90;;;;;;4934831;29;20060;-84
2022/11/14 02:48:02;;;;;;;68.07;35.58;;;5.90;99.90;;;;;;4918924;29;20503;-84
2022/11/14 02:50:28;;;;;;;70.05;36.53;;;5.90;99.90;;;;;;4918893;29;20052;-84
2022/11/14 02:52:54;;;;;;;72.95;36.20;;;5.90;99.90;;;;;;4918772;29;20047;-84
2022/11/14 02:55:20;;;;;;;67.47;35.22;;;5.90;99.90;;;;;;4955439;28;20039;-84
2022/11/14 02:57:46;;;;;;;73.55;37.53;;;6.00;99.90;;;;;;4922274;29;20039;-84
2022/11/14 03:00:12;;;;;;;71.50;35.85;;;5.90;99.90;;;;;;4902653;29;20469;-84
2022/11/14 03:02:38;;;;;;;68.50;35.35;;;5.80;99.90;;;;;;4921609;29;20583;-84
2022/11/14 03:05:04;;;;;;;64.72;35.85;;;5.80;99.90;;;;;;4922343;29;20083;-84
2022/11/14 03:07:30;;;;;;;65.57;33.40;;;5.80;99.90;;;;;;4926108;29;20424;-84
2022/11/14 03:09:56;;;;;;;66.30;36.67;;;5.80;99.90;;;;;;4935728;29;20028;-84
2022/11/14 03:12:21;;;;;;;68.45;37.05;;;5.70;99.90;;;;;;4902541;29;20044;-84
2022/11/14 03:14:47;;;;;;;69.88;35.38;;;6.20;99.90;;;;;;4928836;29;20131;-84
2022/11/14 03:17:13;;;;;;;65.95;35.65;;;5.70;99.90;;;;;;4925680;29;20085;-85
2022/11/14 03:19:38;;;;;;;68.25;36.22;;;6.40;99.90;;;;;;4906415;29;20059;-84
2022/11/14 03:22:04;;;;;;;74.82;37.63;;;6.00;99.90;;;;;;4924820;28;20110;-84
2022/11/14 03:24:30;;;;;;;69.72;36.50;;;6.00;99.90;;;;;;4939361;29;20039;-84
2022/11/14 03:26:56;;;;;;;73.63;37.33;;;5.70;99.90;;;;;;4944263;29;20046;-82
2022/11/14 03:29:22;;;;;;;67.97;36.75;;;6.10;99.90;;;;;;4916519;28;20043;-84
2022/11/14 03:31:47;;;;;;;67.75;36.92;;;5.70;99.90;;;;;;4921829;29;20114;-84
2022/11/14 03:34:13;;;;;;;70.53;35.30;;;6.10;99.90;;;;;;4936490;29;20051;-84
2022/11/14 03:36:39;;;;;;;67.07;35.05;;;6.40;99.90;;;;;;4936789;29;20111;-84
2022/11/14 03:39:05;;;;;;;75.18;39.05;;;5.70;99.90;;;;;;4917725;29;20465;-84
2022/11/14 03:41:31;;;;;;;76.45;38.30;;;5.70;99.90;;;;;;4952604;29;20050;-84
2022/11/14 03:43:57;;;;;;;75.70;38.38;;;5.70;99.90;;;;;;4934596;28;20047;-84
2022/11/14 03:46:22;;;;;;;78.90;39.65;;;5.80;99.90;;;;;;4920707;28;20071;-85
2022/11/14 03:48:48;;;;;;;70.07;33.85;;;6.90;99.90;;;;;;4921849;28;20130;-84
2022/11/14 03:51:14;;;;;;;76.18;39.38;;;5.70;99.90;;;;;;4940265;29;20071;-84
2022/11/14 03:53:39;;;;;;;79.68;40.22;;;4.40;99.90;;;;;;4924717;29;20159;-84
2022/11/14 03:56:05;;;;;;;77.85;39.30;;;5.70;99.90;;;;;;4907843;29;20042;-84
2022/11/14 03:58:31;;;;;;;79.53;39.75;;;5.70;99.90;;;;;;4939039;29;20051;-84
2022/11/14 04:00:57;;;;;;;74.70;38.63;;;6.10;99.90;;;;;;4915867;29;20051;-84
2022/11/14 04:03:23;;;;;;;76.90;39.05;;;5.70;99.90;;;;;;4924449;29;20039;-84
2022/11/14 04:05:50;;;;;;;76.95;38.45;;;5.70;99.90;;;;;;4939422;29;20047;-84
2022/11/14 04:08:16;;;;;;;83.97;40.50;;;5.70;99.90;;;;;;4940304;29;20536;-84
2022/11/14 04:10:42;;;;;;;76.70;39.40;;;5.70;99.90;;;;;;4938664;29;20035;-84
2022/11/14 04:13:08;;;;;;;78.25;40.33;;;5.60;99.90;;;;;;4939059;29;20039;-84
2022/11/14 04:15:34;;;;;;;73.78;36.95;;;6.20;99.90;;;;;;4956323;29;20035;-84
2022/11/14 04:17:59;;;;;;;75.03;36.88;;;7.20;99.90;;;;;;4908477;29;20086;-84
2022/11/14 04:20:25;;;;;;;83.30;41.08;;;5.80;99.90;;;;;;4952405;29;20047;-84
2022/11/14 04:22:51;;;;;;;79.95;40.70;;;5.60;99.90;;;;;;4921146;29;20083;-84
2022/11/14 04:25:17;;;;;;;74.55;38.38;;;5.50;99.90;;;;;;4921667;29;20130;-84
2022/11/14 04:27:43;;;;;;;82.05;42.38;;;5.50;99.90;;;;;;4922713;29;20040;-84
2022/11/14 04:30:09;;;;;;;83.05;42.60;;;5.50;99.90;;;;;;4955078;29;20070;-84
2022/11/14 04:32:35;;;;;;;75.20;38.00;;;5.50;99.90;;;;;;4938242;29;20066;-83
2022/11/14 04:35:00;;;;;;;78.00;39.00;;;5.50;99.90;;;;;;4946456;28;20031;-84
2022/11/14 04:37:26;;;;;;;78.32;41.67;;;5.70;99.90;;;;;;4939816;29;20067;-84
2022/11/14 04:39:52;;;;;;;76.55;38.92;;;5.50;99.90;;;;;;4923558;29;20043;-84
2022/11/14 04:42:18;;;;;;;80.88;40.83;;;5.50;99.90;;;;;;4924538;29;20047;-84
2022/11/14 04:44:43;;;;;;;82.28;41.60;;;5.50;99.90;;;;;;4920088;29;20436;-84
2022/11/14 04:47:09;;;;;;;79.15;41.03;;;5.70;99.90;;;;;;4921865;29;20115;-84
2022/11/14 04:49:35;;;;;;;85.82;42.00;;;5.40;99.90;;;;;;4923986;29;20047;-84
2022/11/14 04:52:01;;;;;;;79.07;39.33;;;5.50;99.90;;;;;;4908050;29;20047;-84
2022/11/14 04:54:26;;;;;;;81.60;42.50;;;5.70;99.90;;;;;;4939534;29;20050;-84
2022/11/14 04:56:52;;;;;;;88.80;43.88;;;6.30;99.90;;;;;;4923213;29;20411;-84
2022/11/14 04:59:18;;;;;;;81.07;41.92;;;6.10;99.90;;;;;;4922764;29;20047;-84
2022/11/14 05:01:43;;;;;;;91.60;44.05;;;5.50;99.90;;;;;;4923394;29;20107;-84
2022/11/14 05:04:09;;;;;;;82.95;41.92;;;5.40;99.90;;;;;;4923394;29;20043;-84
2022/11/14 05:06:34;;;;;;;84.78;41.28;;;5.50;99.90;;;;;;4922970;29;20110;-84
2022/11/14 05:09:00;;;;;;;79.10;39.67;;;5.50;99.90;;;;;;4938629;29;20671;-84
2022/11/14 05:11:26;;;;;;;81.63;40.30;;;5.50;99.90;;;;;;4907158;29;20043;-84
2022/11/14 05:13:51;;;;;;;82.13;41.17;;;5.50;99.90;;;;;;4919661;29;20055;-84
2022/11/14 05:16:17;;;;;;;86.47;42.45;;;5.50;99.90;;;;;;4904755;29;20046;-84
2022/11/14 05:18:43;;;;;;;81.30;41.20;;;5.50;99.90;;;;;;4904435;29;20067;-84
2022/11/14 05:21:14;;;;;;;85.47;41.13;;;5.50;99.90;;;;;;4920210;29;20036;-84
2022/11/14 05:23:40;;;;;;;80.60;42.08;;;5.50;99.90;;;;;;4924365;28;20396;-84
2022/11/14 05:26:09;;;;;;;82.85;42.58;;;5.50;99.90;;;;;;4953980;28;20043;-86
2022/11/14 05:28:35;;;;;;;85.40;42.75;;;5.50;99.90;;;;;;4953886;28;20126;-86
2022/11/14 05:31:09;;;;;;;79.68;40.40;;;5.50;99.90;;;;;;4935157;29;20122;-85
2022/11/14 05:33:35;;;;;;;86.00;40.90;;;5.50;99.90;;;;;;4920299;29;20400;-86
2022/11/14 05:36:07;;;;;;;82.75;39.60;;;6.30;99.90;;;;;;4935416;29;20054;-83
2022/11/14 05:38:32;;;;;;;81.75;42.50;;;5.40;99.90;;;;;;4930409;28;20043;-84
2022/11/14 05:40:58;;;;;;;80.32;39.88;;;5.70;99.90;;;;;;4910896;29;20047;-85
2022/11/14 05:43:24;;;;;;;85.35;43.35;;;5.90;99.90;;;;;;4952171;28;20504;-85
2022/11/14 05:45:50;;;;;;;83.45;41.85;;;5.50;99.90;;;;;;4906305;29;20377;-85
2022/11/14 05:48:16;;;;;;;84.97;42.38;;;5.40;99.90;;;;;;4930465;29;20049;-84
2022/11/14 05:50:42;;;;;;;87.50;43.10;;;6.90;99.90;;;;;;4922836;29;20039;-86
2022/11/14 05:53:07;;;;;;;78.63;37.28;;;5.50;99.90;;;;;;4954803;29;20412;-85
2022/11/14 05:55:33;;;;;;;80.55;40.88;;;6.30;99.90;;;;;;4922270;29;20070;-86
2022/11/14 05:57:59;;;;;;;82.22;41.08;;;5.70;99.90;;;;;;4937553;29;20035;-85
2022/11/14 06:00:26;;;;;;;75.45;37.70;;;5.60;99.90;;;;;;4937190;29;20059;-85
2022/11/14 06:02:55;;;;;;;83.63;41.25;;;6.60;99.90;;;;;;4920041;29;20111;-85
2022/11/14 06:05:22;;;;;;;87.38;42.10;;;5.60;99.90;;;;;;4917257;29;20099;-85
2022/11/14 06:07:53;;;;;;;76.45;39.55;;;6.10;99.90;;;;;;4941311;29;20047;-86
2022/11/14 06:10:19;;;;;;;86.15;41.33;;;5.90;99.90;;;;;;4922449;29;20043;-84
2022/11/14 06:12:44;;;;;;;81.63;39.97;;;5.50;99.90;;;;;;4922276;29;20046;-84
2022/11/14 06:15:10;;;;;;;77.95;38.13;;;5.50;99.90;;;;;;4919374;29;20043;-84
2022/11/14 06:17:36;;;;;;;84.80;42.95;;;5.50;99.90;;;;;;4903545;29;20122;-83
2022/11/14 06:20:01;;;;;;;82.45;41.90;;;6.00;99.90;;;;;;4903849;29;20047;-83
2022/11/14 06:22:27;;;;;;;80.70;41.22;;;5.50;99.90;;;;;;4919551;29;20048;-82
2022/11/14 06:24:53;;;;;;;84.72;43.08;;;5.50;99.90;;;;;;4907785;29;20050;-85
2022/11/14 06:27:18;;;;;;;83.32;41.22;;;6.90;99.90;;;;;;4926607;29;20047;-88
2022/11/14 06:29:44;;;;;;;80.38;40.83;;;5.40;99.90;;;;;;4909141;29;20047;-86
2022/11/14 06:32:10;;;;;;;81.82;41.72;;;5.50;99.90;;;;;;4937282;28;20925;-88
2022/11/14 06:34:35;;;;;;;84.15;39.80;;;5.50;99.90;;;;;;4955365;29;20042;-87
2022/11/14 06:37:01;;;;;;;78.53;40.22;;;5.40;99.90;;;;;;4924209;29;20126;-85
2022/11/14 06:39:27;;;;;;;80.95;40.30;;;5.40;99.90;;;;;;4942476;29;20043;-87
2022/11/14 06:41:52;;;;;;;86.93;43.47;;;5.40;99.90;;;;;;4927069;29;20102;-85
2022/11/14 06:44:18;;;;;;;81.05;39.83;;;5.40;99.90;;;;;;4933327;28;20050;-85
2022/11/14 06:46:43;;;;;;;82.28;41.30;;;5.40;99.90;;;;;;4930505;29;20047;-84
2022/11/14 06:49:09;;;;;;;77.25;38.75;;;5.40;99.90;;;;;;4926145;29;20035;-85
2022/11/14 06:51:35;;;;;;;90.15;42.90;;;5.60;99.90;;;;;;4941695;29;20365;-84
2022/11/14 06:54:00;;;;;;;85.03;41.30;;;5.40;99.90;;;;;;4926918;29;20503;-84
2022/11/14 06:56:26;;;;;;;84.28;39.08;;;5.40;99.90;;;;;;4910569;29;20043;-84
2022/11/14 06:58:52;;;;;;;81.88;40.20;;;5.70;99.90;;;;;;4910592;29;20044;-85
2022/11/14 07:01:20;;;;;;;84.15;42.60;;;5.40;99.90;;;;;;4926925;29;20071;-84
2022/11/14 07:03:47;;;;;;;84.68;42.65;;;6.10;99.90;;;;;;4955275;29;20054;-85
2022/11/14 07:06:15;;;;;;;92.70;42.10;;;6.10;99.90;;;;;;4932243;29;20039;-85
2022/11/14 07:08:41;;;;;;;86.35;41.90;;;5.30;99.90;;;;;;4947393;28;20043;-85
2022/11/14 07:11:09;;;;;;;87.38;43.35;;;5.30;99.90;;;;;;4940908;28;22058;-85
2022/11/14 07:13:35;;;;;;;80.20;40.60;;;5.30;99.90;;;;;;4926302;29;20050;-85
2022/11/14 07:16:02;;;;;;;84.78;41.55;;;5.30;99.90;;;;;;4958498;29;20114;-85
2022/11/14 07:18:32;;;;;;;82.22;41.90;;;6.30;99.90;;;;;;4941871;29;20488;-85
2022/11/14 07:20:59;;;;;;;81.53;39.35;;;5.30;99.90;;;;;;4938512;29;20083;-85
2022/11/14 07:23:26;;;;;;;80.07;38.63;;;5.30;99.90;;;;;;4938135;29;20140;-85
2022/11/14 07:25:51;;;;;;;87.20;41.83;;;6.10;99.90;;;;;;4922337;29;20039;-85
2022/11/14 07:28:18;;;;;;;72.25;39.53;;;5.20;99.90;;;;;;4937861;29;20111;-85
2022/11/14 07:30:43;;;;;;;78.10;39.53;;;6.50;99.90;;;;;;4937601;29;20036;-85
2022/11/14 07:33:10;;;;;;;73.07;37.33;;;5.20;99.90;;;;;;4925075;29;20512;-85
2022/11/14 07:35:38;;;;;;;80.43;39.67;;;5.20;99.90;;;;;;4938337;29;20048;-84
2022/11/14 07:38:04;;;;;;;77.07;38.03;;;5.20;99.90;;;;;;4921900;29;20543;-84
2022/11/14 07:40:30;;;;;;;75.35;36.80;;;5.20;99.90;;;;;;4921899;29;20078;-84
2022/11/14 07:42:57;;;;;;;73.05;37.63;;;5.20;99.90;;;;;;4924641;29;20039;-84
2022/11/14 07:45:23;;;;;;;70.95;38.22;;;5.30;99.90;;;;;;4938072;29;20410;-84
2022/11/14 07:47:49;;;;;;;76.47;38.05;;;5.20;99.90;;;;;;4921439;29;20046;-84
2022/11/14 07:50:15;;;;;;;75.82;39.25;;;5.30;99.90;;;;;;4921844;29;20430;-85
2022/11/14 07:52:41;;;;;;;81.53;38.97;;;5.30;99.90;;;;;;4921979;29;20349;-86
2022/11/14 07:55:07;;;;;;;80.20;39.60;;;5.30;99.90;;;;;;4922109;29;20075;-85
2022/11/14 07:57:33;;;;;;;74.10;36.70;;;5.30;99.90;;;;;;4930437;29;20075;-85
2022/11/14 07:59:58;;;;;;;76.63;38.90;;;5.30;99.90;;;;;;4940607;29;20059;-85
2022/11/14 08:02:24;;;;;;;71.85;36.90;;;5.40;99.90;;;;;;4925049;29;20057;-85
2022/11/14 08:04:50;;;;;;;69.47;36.50;;;6.40;99.90;;;;;;4909158;29;20395;-85
2022/11/14 08:07:15;;;;;;;70.80;36.72;;;5.40;99.90;;;;;;4924966;29;20554;-85
2022/11/14 08:09:41;;;;;;;62.25;32.35;;;5.40;99.90;;;;;;4924915;29;20050;-85
2022/11/14 08:12:07;;;;;;;71.28;37.35;;;6.70;99.90;;;;;;4924741;29;20062;-85
2022/11/14 08:14:33;;;;;;;71.97;34.03;;;5.40;99.90;;;;;;4940186;29;20089;-85
2022/11/14 08:16:59;;;;;;;66.00;34.20;;;6.50;99.90;;;;;;4955258;29;20035;-85
2022/11/14 08:19:25;;;;;;;65.97;35.10;;;5.50;99.90;;;;;;4920675;29;20044;-85
2022/11/14 08:21:50;;;;;;;64.45;33.85;;;5.60;99.90;;;;;;4931521;29;20043;-84
2022/11/14 08:24:16;;;;;;;66.30;33.92;;;5.60;99.90;;;;;;4936685;29;20047;-84
2022/11/14 08:26:42;;;;;;;61.55;33.13;;;5.60;99.90;;;;;;4924352;29;20050;-85
2022/11/14 08:29:07;;;;;;;68.05;33.90;;;5.60;99.90;;;;;;4940319;29;20046;-85
2022/11/14 08:31:33;;;;;;;64.90;35.78;;;6.80;99.90;;;;;;4924700;29;20054;-85
2022/11/14 08:33:58;;;;;;;64.28;33.05;;;5.90;99.90;;;;;;4941793;29;20106;-85
2022/11/14 08:36:24;;;;;;;60.30;30.90;;;5.70;99.90;;;;;;4940019;29;20110;-85
2022/11/14 08:38:50;;;;;;;62.85;33.05;;;5.70;99.90;;;;;;4934584;29;20035;-84
2022/11/14 08:41:15;;;;;;;61.72;32.50;;;5.80;99.90;;;;;;4947037;28;20099;-85
2022/11/14 08:43:41;;;;;;;60.40;32.72;;;5.80;99.90;;;;;;4960061;28;20034;-85
2022/11/14 08:46:08;;;;;;;60.08;33.08;;;5.90;99.90;;;;;;4911837;29;20047;-85
2022/11/14 08:48:34;;;;;;;59.25;33.30;;;5.90;99.90;;;;;;4940575;29;20043;-85
2022/11/14 08:51:04;;;;;;;64.60;33.80;;;5.90;99.90;;;;;;4923718;29;20114;-84
2022/11/14 08:53:30;;;;;;;56.45;31.17;;;5.90;99.90;;;;;;4937664;29;20503;-84
2022/11/14 08:55:56;;;;;;;59.95;31.38;;;6.00;99.90;;;;;;4889956;29;20059;-85
2022/11/14 08:58:21;;;;;;;62.33;32.83;;;6.10;99.90;;;;;;4915249;29;20118;-84
2022/11/14 09:00:47;;;;;;;52.85;28.92;;;6.20;99.90;;;;;;4907973;29;20480;-84
2022/11/14 09:03:14;;;;;;;60.78;31.15;;;6.50;99.90;;;;;;4941264;29;20051;-83
2022/11/14 09:05:40;;;;;;;63.10;31.10;;;6.40;99.90;;;;;;4956208;29;20054;-84
2022/11/14 09:08:06;;;;;;;62.55;33.80;;;7.00;99.90;;;;;;4924549;29;20039;-84
2022/11/14 09:10:33;;;;;;;59.15;30.30;;;6.50;99.90;;;;;;4940141;29;20035;-84
2022/11/14 09:13:00;;;;;;;53.58;30.67;;;7.00;99.90;;;;;;4945468;29;20093;-85
2022/11/14 09:15:29;;;;;;;52.22;29.10;;;6.90;99.90;;;;;;4918849;29;20035;-85
2022/11/14 09:17:56;;;;;;;50.65;27.48;;;6.80;99.90;;;;;;4928770;29;20130;-85
2022/11/14 09:20:23;;;;;;;52.97;30.65;;;7.10;99.90;;;;;;4933903;29;20039;-84
2022/11/14 09:22:51;;;;;;;51.08;29.00;;;6.90;99.90;;;;;;4943743;29;20051;-86
2022/11/14 09:25:17;;;;;;;51.45;28.20;;;7.20;99.90;;;;;;4948797;29;20047;-86
2022/11/14 09:27:42;;;;;;;53.00;29.25;;;6.90;99.90;;;;;;4948733;29;20061;-87
2022/11/14 09:30:09;;;;;;;49.05;29.15;;;6.80;99.90;;;;;;4939223;29;20396;-88
2022/11/14 09:32:34;;;;;;;49.00;26.88;;;6.80;99.90;;;;;;4922819;28;20043;-87
2022/11/14 09:35:00;;;;;;;54.05;29.33;;;6.80;99.90;;;;;;4956019;28;20039;-87
2022/11/14 09:37:26;;;;;;;50.63;29.48;;;6.90;99.90;;;;;;4935657;29;20044;-87
2022/11/14 09:39:52;;;;;;;51.13;28.48;;;7.00;99.90;;;;;;4938296;29;20166;-86
2022/11/14 09:43:05;;;;;;;48.28;29.52;;;7.40;99.90;;;;;;4929620;29;20054;-86
2022/11/14 09:45:33;;;;;;;46.28;27.30;;;7.40;99.90;;;;;;4880182;29;20055;-85
2022/11/14 09:48:12;;;;;;;44.55;26.05;;;7.70;99.90;;;;;;4919840;29;20481;-85
2022/11/14 09:50:45;;;;;;;49.40;26.67;;;7.90;99.90;;;;;;4954385;29;20416;-85
2022/11/14 09:53:18;;;;;;;43.38;25.63;;;8.20;99.90;;;;;;4937601;29;20035;-85
2022/11/14 09:55:44;;;;;;;39.35;22.27;;;9.00;99.90;;;;;;4953785;29;20047;-85
2022/11/14 09:58:19;;;;;;;37.75;22.75;;;8.70;99.90;;;;;;4919931;29;20039;-84
2022/11/14 10:01:02;;;;;;;38.35;23.17;;;8.90;99.90;;;;;;4936899;29;20424;-85
2022/11/14 10:03:45;;;;;;;39.70;23.02;;;9.20;99.90;;;;;;4936975;29;20079;-85
2022/11/14 10:06:30;;;;;;;38.15;22.58;;;9.40;99.90;;;;;;4952510;28;20102;-85
2022/11/14 10:09:12;;;;;;;37.33;22.55;;;9.70;99.90;;;;;;4954004;29;20074;-85
2022/11/14 10:11:49;;;;;;;43.42;26.20;;;10.20;99.90;;;;;;4938109;29;20080;-85
2022/11/14 10:14:30;;;;;;;37.00;23.15;;;10.60;99.90;;;;;;4953298;29;20055;-85
2022/11/14 10:17:22;;;;;;;37.35;23.95;;;10.60;99.90;;;;;;4954577;29;20082;-85
2022/11/14 10:20:00;;;;;;;35.80;22.85;;;10.30;99.90;;;;;;4938104;29;20496;-85
2022/11/14 10:22:52;;;;;;;37.33;22.25;;;9.80;99.90;;;;;;4922364;29;20043;-86
2022/11/14 10:25:53;;;;;;;38.78;23.88;;;9.30;99.90;;;;;;4935250;29;20047;-86
2022/11/14 10:28:37;;;;;;;39.60;22.75;;;8.90;99.90;;;;;;4896834;29;20062;-85
2022/11/14 10:31:05;;;;;;;43.10;24.67;;;8.70;99.90;;;;;;4935444;29;20035;-85
2022/11/14 10:33:43;;;;;;;39.58;23.75;;;8.50;99.90;;;;;;4927262;29;20051;-85
2022/11/14 10:36:38;;;;;;;37.83;22.77;;;8.60;99.90;;;;;;4938562;29;20047;-86
2022/11/14 10:39:39;;;;;;;39.38;24.05;;;8.60;99.90;;;;;;4953592;29;20517;-85
2022/11/14 10:42:13;;;;;;;59.70;30.73;;;8.60;99.90;;;;;;4937421;29;20090;-85
2022/11/14 10:44:51;;;;;;;38.47;23.23;;;8.60;99.90;;;;;;4946807;29;20481;-85
2022/11/14 10:47:21;;;;;;;37.00;22.90;;;8.50;99.90;;;;;;4938009;29;20492;-85
2022/11/14 10:49:54;;;;;;;39.25;23.80;;;8.50;99.90;;;;;;4951144;29;20039;-85
2022/11/14 10:52:36;;;;;;;35.78;22.20;;;8.40;99.90;;;;;;4947045;29;20496;-85
2022/11/14 10:55:16;;;;;;;36.13;22.38;;;8.50;99.90;;;;;;4937805;29;20050;-85
2022/11/14 10:57:46;;;;;;;36.53;21.27;;;8.60;99.90;;;;;;4929388;29;20047;-86
2022/11/14 11:00:21;;;;;;;37.08;22.88;;;8.70;99.90;;;;;;4937068;29;20084;-86
2022/11/14 11:02:47;;;;;;;38.95;23.55;;;8.70;99.90;;;;;;4937397;29;20134;-86
2022/11/14 11:05:19;;;;;;;40.40;24.25;;;8.70;99.90;;;;;;4936298;29;20552;-87
2022/11/14 11:13:34;;;;;;;36.60;22.88;;;9.90;99.90;;;;;;4953423;29;20423;-87
2022/11/14 11:16:02;;;;;;;33.28;21.77;;;10.10;99.90;;;;;;4936379;29;20050;-85
2022/11/14 11:18:30;;;;;;;37.03;23.25;;;10.00;99.90;;;;;;4953008;29;20035;-86
2022/11/14 11:21:13;;;;;;;32.10;20.33;;;9.80;99.90;;;;;;4953269;29;20130;-86
2022/11/14 11:23:53;;;;;;;35.75;21.83;;;9.70;99.90;;;;;;4955588;28;20126;-86
2022/11/14 11:26:25;;;;;;;35.53;22.80;;;9.50;99.90;;;;;;4956571;29;20043;-86
2022/11/14 11:29:09;;;;;;;33.63;21.10;;;9.60;99.90;;;;;;4933334;29;20043;-86
2022/11/14 11:31:53;;;;;;;35.08;22.25;;;9.60;99.90;;;;;;4932023;29;20046;-85
2022/11/14 11:34:37;;;;;;;31.60;21.13;;;9.60;99.90;;;;;;4939179;29;20047;-86
2022/11/14 11:37:08;;;;;;;34.25;20.80;;;9.50;99.90;;;;;;4955459;29;20047;-87
2022/11/14 11:39:44;;;;;;;34.85;21.65;;;9.50;99.90;;;;;;4968269;29;20053;-85
2022/11/14 11:42:17;;;;;;;30.20;18.13;;;9.40;99.90;;;;;;4954876;29;20074;-83
2022/11/14 11:44:46;;;;;;;33.13;20.70;;;9.40;99.90;;;;;;4951154;29;20066;-85
2022/11/14 11:47:18;;;;;;;32.78;21.80;;;9.70;99.90;;;;;;4944041;29;20122;-84
2022/11/14 11:49:51;;;;;;;34.05;20.88;;;9.60;99.90;;;;;;4940532;29;20066;-85
2022/11/14 11:52:27;;;;;;;34.13;20.92;;;9.60;99.90;;;;;;4939923;29;20047;-85
2022/11/14 11:55:04;;;;;;;31.08;20.02;;;9.40;99.90;;;;;;4939971;29;20039;-86
2022/11/14 11:57:42;;;;;;;35.05;21.10;;;9.40;99.90;;;;;;4939611;29;20043;-85
2022/11/14 12:00:16;;;;;;;31.95;20.27;;;9.20;99.90;;;;;;4955205;29;20067;-86
2022/11/14 12:02:45;;;;;;;32.08;20.85;;;9.20;99.90;;;;;;4940923;29;20069;-84
2022/11/14 12:05:43;;;;;;;32.40;20.13;;;9.10;99.90;;;;;;4939865;29;20118;-84
2022/11/14 12:08:23;;;;;;;32.92;21.42;;;9.00;99.90;;;;;;4954876;29;20047;-84
2022/11/14 12:10:50;;;;;;;34.30;20.25;;;9.00;99.90;;;;;;4954973;29;20047;-82
2022/11/14 12:13:25;;;;;;;36.10;22.00;;;9.00;99.90;;;;;;4939936;29;20051;-82
2022/11/14 12:15:53;;;;;;;35.67;21.92;;;9.00;99.90;;;;;;4931088;29;20043;-82
2022/11/14 12:18:35;;;;;;;31.08;18.48;;;9.00;99.90;;;;;;4955082;29;20118;-82
2022/11/14 12:21:40;;;;;;;31.85;19.90;;;9.00;99.90;;;;;;4938374;29;20050;-82
2022/11/14 12:24:18;;;;;;;31.42;21.05;;;9.00;99.90;;;;;;4969710;28;20047;-82
2022/11/14 12:26:50;;;;;;;34.53;21.15;;;9.00;99.90;;;;;;4938973;29;20082;-83
2022/11/14 12:29:43;;;;;;;31.88;20.90;;;8.90;99.90;;;;;;4938948;29;20102;-83
2022/11/14 12:32:14;;;;;;;34.42;20.15;;;9.00;99.90;;;;;;4956129;29;20071;-82
2022/11/14 12:34:44;;;;;;;30.45;19.50;;;9.10;99.90;;;;;;4954595;28;20492;-83
2022/11/14 12:37:43;;;;;;;32.42;20.52;;;9.20;99.90;;;;;;4939450;29;20510;-82
2022/11/14 12:40:28;;;;;;;30.58;19.95;;;9.30;99.90;;;;;;4913830;29;20469;-83
2022/11/14 12:42:56;;;;;;;30.00;18.48;;;9.20;99.90;;;;;;4940426;29;20108;-83
2022/11/14 12:45:42;;;;;;;28.83;18.42;;;9.30;99.90;;;;;;4944568;29;20039;-83
2022/11/14 12:48:27;;;;;;;31.23;20.23;;;9.40;99.90;;;;;;4955698;29;20043;-83
2022/11/14 12:50:54;;;;;;;27.95;18.42;;;9.40;99.90;;;;;;4971400;29;20051;-82